Wind EuroAirport

Messzeit Windrichtung Windgeschwindigkeit [Knoten] Rückenwind Nordpiste [Knoten] METAR
2017-12-11 10:00 O 100° 16 - LFSB 110900Z 10016KT CAVOK 07/04 Q0980 NOSIG
2017-12-11 09:30 O 110° 18 - LFSB 110830Z 11018KT 9999 -RA NSC 07/04 Q0981 NOSIG
2017-12-11 09:00 O 110° 12 - LFSB 110800Z 11012KT 9999 -RA NSC 07/04 Q0982 NOSIG
2017-12-11 08:30 SO 120° 6 - LFSB 110730Z 12006KT 9999 -RA NSC 07/05 Q0982 NOSIG
2017-12-11 08:00 O 110° 9 - LFSB 110700Z 11009KT 9999 -RA NSC 07/05 Q0982 NOSIG
2017-12-11 07:30 O 110°
(80°–140°)
7 - LFSB 110630Z 11007KT 080V140 9999 -RA NSC 06/05 Q0982 NOSIG
2017-12-11 06:30 O 100° 7 - LFSB 110530Z 10007KT 9999 -RA NSC 07/06 Q0982 NOSIG
2017-12-11 06:00 O 110° 5 - LFSB 110500Z 11005KT 9999 -RA FEW050 BKN066 06/05 Q0983 NOSIG
2017-12-11 05:30 O 100° 7 - LFSB 110430Z 10007KT 9999 -RA FEW030 BKN073 OVC083 06/05 Q0984 NOSIG
2017-12-11 05:00 O 100° 3 - LFSB 110400Z 10003KT 9999 FEW030 BKN090 05/04 Q0985 NOSIG
2017-12-11 04:30 SO 120° 14 - LFSB 110330Z 12014KT 9999 FEW030 BKN090 06/05 Q0985 NOSIG
2017-12-11 04:00 S 160°
(140°–210°)
7 - LFSB 110300Z AUTO 16007KT 140V210 9999 FEW007/// BKN068/// BKN082/// 05/05 Q0985 TEMPO BKN008
2017-12-11 03:30 SO 150°
(100°–230°)
4 - LFSB 110230Z AUTO 15004KT 100V230 9999 -RA NCD 05/04 Q0986 TEMPO BKN008
2017-12-11 03:00 S 170° 5 - LFSB 110200Z AUTO 17005KT 9999 -RA FEW054/// BKN070/// OVC084/// 05/05 Q0987 TEMPO BKN008
2017-12-11 02:30 S 170° 5 - LFSB 110130Z AUTO 17005KT 9999 SCT054/// BKN070/// OVC090/// 05/04 Q0987 TEMPO BKN008
2017-12-11 02:00 SO 150° 6 - LFSB 110100Z AUTO 15006KT 9999 BKN052/// BKN062/// OVC074/// 05/04 Q0987 TEMPO BKN008
2017-12-11 01:30 SO 150°
(110°–180°)
4 - LFSB 110030Z AUTO 15004KT 110V180 9999 -RA SCT046/// BKN060/// OVC074/// 05/04 Q0988 TEMPO BKN008
2017-12-11 01:00 S 160°
(130°–200°)
4 - LFSB 110000Z AUTO 16004KT 130V200 9999 -RA BKN047/// OVC062/// 05/04 Q0989 TEMPO BKN008
2017-12-11 00:30 S 170° 6 - LFSB 102330Z AUTO 17006KT 9999 BKN050/// BKN062/// BKN072/// 05/04 Q0989 TEMPO BKN008
2017-12-11 00:00 S 160° 6 - LFSB 102300Z 16006KT 9999 -RA FEW050 BKN070 05/04 Q0988 NOSIG
2017-12-10 23:30 S 160°
(130°–210°)
4 - LFSB 102230Z 16004KT 130V210 9999 -RA BKN050 05/04 Q0989 NOSIG
2017-12-10 23:00 SO 140°
(110°–200°)
6 - LFSB 102200Z 14006KT 110V200 9999 -RA BKN050 06/04 Q0990 NOSIG
2017-12-10 22:30 SO 150°
(110°–180°)
6 - LFSB 102130Z 15006KT 110V180 9999 BKN053 06/04 Q0990 NOSIG
2017-12-10 22:00 S 160°
(130°–220°)
5 - LFSB 102100Z 16005KT 130V220 9999 -RA NSC 05/04 Q0990 NOSIG
2017-12-10 21:30 SO 130° 9 - LFSB 102030Z 13009KT 9999 -RA NSC 06/04 Q0990 NOSIG
2017-12-10 21:00 SO 120° 8 - LFSB 102000Z 12008KT 9999 -RA NSC 05/04 Q0991 NOSIG
2017-12-10 20:30 S 160° 6 - LFSB 101930Z 16006KT 9999 -RA BKN053 06/04 Q0991 NOSIG
2017-12-10 20:00 S 170° 6 - LFSB 101900Z 17006KT 9999 -RA BKN040 06/04 Q0992 TEMPO 23020G30KT
2017-12-10 19:30 SW 210°
(180°–250°)
9 - LFSB 101830Z 21009KT 180V250 9999 -RA BKN036 06/04 Q0992 TEMPO 23020G30KT
2017-12-10 19:00 SW 230° 8 - LFSB 101800Z 23008KT 9999 -RA BKN033 07/04 Q0992 TEMPO 23020G30KT
2017-12-10 18:30 SW 230° 33 - LFSB 101730Z 23023G33KT 9999 SCT046 BKN073 09/02 Q0991 NOSIG
2017-12-10 18:00 SW 210° 11 - LFSB 101700Z 21011KT 9999 FEW040 OVC110 10/03 Q0990 TEMPO 23015G25KT -RA
2017-12-10 17:30 SW 220°
(190°–250°)
11 - LFSB 101630Z 22011KT 190V250 9999 FEW040 OVC120 10/03 Q0990 TEMPO 23015G25KT -RA
2017-12-10 17:00 SW 230° 11 - LFSB 101600Z 23011KT 9999 FEW040 OVC100 10/03 Q0990 TEMPO 25025G45KT
2017-12-10 16:30 SW 230° 27 - LFSB 101530Z 23017G27KT 9999 FEW040 SCT063 OVC110 09/03 Q0990 TEMPO 25025G45KT
2017-12-10 16:00 SW 240° 33 - LFSB 101500Z 24021G33KT 9999 FEW036 BKN063 OVC110 09/04 Q0990 TEMPO 25025G45KT
2017-12-10 15:30 SW 230°
(210°–270°)
33 0–11 LFSB 101430Z 23019G33KT 210V270 9999 FEW036 BKN063 OVC110 09/05 Q0989 TEMPO 25025G45KT
2017-12-10 15:00 SW 230° 17 - LFSB 101400Z 23017KT 9999 -RA FEW036 BKN046 OVC100 08/05 Q0989 TEMPO 25025G45KT
2017-12-10 14:30 S 170°
(110°–230°)
3 - LFSB 101330Z 17003KT 110V230 9999 -RA BKN033 03/03 Q0989 TEMPO 25025G45KT
2017-12-10 14:00 - 3 - LFSB 101300Z VRB03KT 6000 -RA BKN030 01/01 Q0989 TEMPO 25025G45KT
2017-12-10 13:30 - 3 - LFSB 101230Z VRB03KT 6000 -RA BKN033 01/01 Q0989 TEMPO 25025G45KT
2017-12-10 13:00 SW 230°
(160°–260°)
4 0–1 LFSB 101200Z 23004KT 160V260 8000 -RA BKN035 01/01 Q0989 TEMPO 25025G45KT
2017-12-10 12:30 O 90° 6 - LFSB 101130Z 09006KT 8000 -RA BKN036 02/01 Q0989 TEMPO 25025G45KT
2017-12-10 12:00 O 100°
(70°–130°)
7 - LFSB 101100Z 10007KT 070V130 9999 -RA FEW015 BKN036 01/00 Q0990 TEMPO 25025G45KT
2017-12-10 11:30 SO 130° 9 - LFSB 101030Z 13009KT 9999 -RA FEW015 BKN036 00/M01 Q0992 TEMPO 4500 RA
2017-12-10 11:00 O 110° 11 - LFSB 101000Z 11011KT 9999 -RASN FEW015 BKN038 M00/M01 Q0993 TEMPO 4500 RA
2017-12-10 10:30 O 110° 13 - LFSB 100930Z 11013KT 9999 -PL FEW015 SCT026 BKN040 M01/M02 Q0994 TEMPO 2000 SN BKN014